Map

Track Data

SID SEASON NUMBER BASIN SUBBASIN NAME ISO_TIME NATURE LAT LON WMO_WIND WMO_PRES WMO_AGENCY TRACK_TYPE DIST2LAND LANDFALL IFLAG USA_AGENCY USA_ATCF_ID USA_LAT USA_LON USA_RECORD USA_STATUS USA_WIND USA_PRES USA_SSHS USA_R34_NE USA_R34_SE USA_R34_SW USA_R34_NW USA_R50_NE USA_R50_SE USA_R50_SW USA_R50_NW USA_R64_NE USA_R64_SE USA_R64_SW USA_R64_NW USA_POCI USA_ROCI USA_RMW USA_EYE TOKYO_LAT TOKYO_LON TOKYO_GRADE TOKYO_WIND TOKYO_PRES TOKYO_R50_DIR TOKYO_R50_LONG TOKYO_R50_SHORT TOKYO_R30_DIR TOKYO_R30_LONG TOKYO_R30_SHORT TOKYO_LAND CMA_LAT CMA_LON CMA_CAT CMA_WIND CMA_PRES HKO_LAT HKO_LON HKO_CAT HKO_WIND HKO_PRES NEWDELHI_LAT NEWDELHI_LON NEWDELHI_GRADE NEWDELHI_WIND NEWDELHI_PRES NEWDELHI_CI NEWDELHI_DP NEWDELHI_POCI REUNION_LAT REUNION_LON REUNION_TYPE REUNION_WIND REUNION_PRES REUNION_TNUM REUNION_CI REUNION_RMW REUNION_R34_NE REUNION_R34_SE REUNION_R34_SW REUNION_R34_NW REUNION_R50_NE REUNION_R50_SE REUNION_R50_SW REUNION_R50_NW REUNION_R64_NE REUNION_R64_SE REUNION_R64_SW REUNION_R64_NW BOM_LAT BOM_LON BOM_TYPE BOM_WIND BOM_PRES BOM_TNUM BOM_CI BOM_RMW BOM_R34_NE BOM_R34_SE BOM_R34_SW BOM_R34_NW BOM_R50_NE BOM_R50_SE BOM_R50_SW BOM_R50_NW BOM_R64_NE BOM_R64_SE BOM_R64_SW BOM_R64_NW BOM_ROCI BOM_POCI BOM_EYE BOM_POS_METHOD BOM_PRES_METHOD NADI_LAT NADI_LON NADI_CAT NADI_WIND NADI_PRES WELLINGTON_LAT WELLINGTON_LON WELLINGTON_WIND WELLINGTON_PRES DS824_LAT DS824_LON DS824_STAGE DS824_WIND DS824_PRES TD9636_LAT TD9636_LON TD9636_STAGE TD9636_WIND TD9636_PRES TD9635_LAT TD9635_LON TD9635_WIND TD9635_PRES TD9635_ROCI NEUMANN_LAT NEUMANN_LON NEUMANN_CLASS NEUMANN_WIND NEUMANN_PRES MLC_LAT MLC_LON MLC_CLASS MLC_WIND MLC_PRES USA_GUST BOM_GUST BOM_GUST_PER REUNION_GUST REUNION_GUST_PER USA_SEAHGT USA_SEARAD_NE USA_SEARAD_SE USA_SEARAD_SW USA_SEARAD_NW STORM_SPEED STORM_DIR
1974167N18086 1974 47 NI BB NOT_NAMED 1974-06-15 12:00:00 TS 18.1000 86.3000 main 192 186 O________OO___ jtwc_io IO041974 18.1000 86.3000 -1 18.1000 86.3000 TC 25 18.1000 86.3000 1 3 266
1974167N18086 1974 47 NI BB NOT_NAMED 1974-06-15 15:00:00 TS 18.0912 86.1484 main 176 167 P________PP___ IO041974 18.0750 86.1500 -1 18.0750 86.1500 TC 25 18.1236 86.1453 1 3 274
1974167N18086 1974 47 NI BB NOT_NAMED 1974-06-15 18:00:00 TS 18.1225 85.9975 main 167 152 O________OP___ jtwc_io IO041974 18.1000 86.0000 -1 18.1000 86.0000 TC 25 18.1676 85.9925 1 3 295
1974167N18086 1974 47 NI BB NOT_NAMED 1974-06-15 21:00:00 TS 18.2260 85.8478 main 143 124 P________PP___ IO041974 18.2125 85.8500 -1 18.2125 85.8500 TC 25 18.2529 85.8435 1 4 315
1974167N18086 1974 47 NI BB NOT_NAMED 1974-06-16 00:00:00 TS 18.4000 85.7000 main 124 104 O________OO___ jtwc_io IO041974 18.4000 85.7000 -1 18.4000 85.7000 TC 25 18.4000 85.7000 1 5 325
1974167N18086 1974 47 NI BB NOT_NAMED 1974-06-16 03:00:00 TS 18.6210 85.5540 main 104 69 P________PP___ IO041974 18.6200 85.5499 -1 18.6200 85.5499 TC 25 18.6230 85.5620 1 6 331
1974167N18086 1974 47 NI BB NOT_NAMED 1974-06-16 06:00:00 TS 18.9033 85.4074 main 69 35 O________OP___ jtwc_io IO041974 18.9000 85.4000 -1 18.9000 85.4000 TC 25 18.9099 85.4222 1 7 336
1974167N18086 1974 47 NI BB NOT_NAMED 1974-06-16 09:00:00 TS 19.2372 85.2620 main 35 0 P________PP___ IO041974 19.2350 85.2574 -1 19.2350 85.2574 TC 25 19.2418 85.2712 1 8 337
1974167N18086 1974 47 NI BB NOT_NAMED 1974-06-16 12:00:00 TS 19.6000 85.1000 main 0 0 O________OO___ jtwc_io IO041974 19.6000 85.1000 -1 19.6000 85.1000 TC 25 19.6000 85.1000 1 8 335
1974167N18086 1974 47 NI BB NOT_NAMED 1974-06-16 15:00:00 TS 19.9447 84.9127 main 0 0 P________PP___ IO041974 19.9425 84.9149 -1 19.9425 84.9149 TC 25 19.9493 84.9085 1 8 332
1974167N18086 1974 47 NI BB NOT_NAMED 1974-06-16 18:00:00 TS 20.3066 84.6982 main 0 0 O________OP___ jtwc_io IO041974 20.3000 84.7000 -1 20.3000 84.7000 TC 25 20.3199 84.6946 1 9 331
1974167N18086 1974 47 NI BB NOT_NAMED 1974-06-16 21:00:00 TS 20.6968 84.4627 main 0 0 P________PP___ IO041974 20.6925 84.4649 -1 20.6925 84.4649 TC 25 20.7055 84.4583 1 9 330
1974167N18086 1974 47 NI BB NOT_NAMED 1974-06-17 00:00:00 TS 21.1000 84.2000 main 0 0 O________OO___ jtwc_io IO041974 21.1000 84.2000 -1 21.1000 84.2000 TC 25 21.1000 84.2000 1 10 327
1974167N18086 1974 47 NI BB NOT_NAMED 1974-06-17 03:00:00 TS 21.5085 83.9056 main 0 0 P________PP___ IO041974 21.5000 83.9074 -1 21.5000 83.9074 TC 25 21.5255 83.9019 1 10 325
1974167N18086 1974 47 NI BB NOT_NAMED 1974-06-17 06:00:00 TS 21.9176 83.5953 main 0 0 O________OP___ jtwc_io IO041974 21.9000 83.6000 -1 21.9000 83.6000 TC 25 21.9528 83.5860 1 10 325
1974167N18086 1974 47 NI BB NOT_NAMED 1974-06-17 09:00:00 TS 22.3329 83.2824 main 0 0 P________PP___ IO041974 22.3225 83.2851 -1 22.3225 83.2851 TC 25 22.3537 83.2770 1 10 325
1974167N18086 1974 47 NI BB NOT_NAMED 1974-06-17 12:00:00 TS 22.7000 83.0000 main 0 0 O________OO___ jtwc_io IO041974 22.7000 83.0000 -1 22.7000 83.0000 TC 25 22.7000 83.0000 1 8 324
1974167N18086 1974 47 NI BB NOT_NAMED 1974-06-17 15:00:00 TS 22.9823 82.7762 main 0 0 P________PP___ IO041974 22.9874 82.7773 -1 22.9874 82.7773 TC 25 22.9720 82.7741 1 6 323
1974167N18086 1974 47 NI BB NOT_NAMED 1974-06-17 18:00:00 TS 23.1941 82.5973 main 0 0 O________OP___ jtwc_io IO041974 23.2000 82.6000 -1 23.2000 82.6000 TC 25 23.1822 82.5918 1 5 321
1974167N18086 1974 47 NI BB NOT_NAMED 1974-06-17 21:00:00 TS 23.3588 82.4430 main 0 0 P________PP___ IO041974 23.3625 82.4451 -1 23.3625 82.4451 TC 25 23.3514 82.4387 1 4 318
1974167N18086 1974 47 NI BB NOT_NAMED 1974-06-18 00:00:00 TS 23.5000 82.3000 main 0 O________OO___ jtwc_io IO041974 23.5000 82.3000 -1 23.5000 82.3000 TC 25 23.5000 82.3000 6 4 317

About IBTrACS Database

This database is a web-friendly format of International Best Track Archive for Climate Stewardship (IBTrACS), a global best track data archive curated by NOAA dating back to 1842.

Updated: 2021-11-26